Time;durP1;ratioP1;P1;durP2;ratioP2;P2;SDS_P1;SDS_P2;PMS_P1;PMS_P2;Temp;Humidity;BMP_temperature;BMP_pressure;BME280_temperature;BME280_humidity;BME280_pressure;Samples;Min_cycle;Max_cycle;Signal;HPM_P1;HPM_P2
2023/09/11 00:00:59;;;;;;;6.72;5.53;;;23.40;72.00;;;;;;5011542;28;20022;-74
2023/09/11 00:03:25;;;;;;;9.25;5.22;;;23.30;71.80;;;;;;5013148;28;20048;-74
2023/09/11 00:05:51;;;;;;;6.30;5.70;;;23.30;71.90;;;;;;5012934;28;20024;-74
2023/09/11 00:08:17;;;;;;;11.95;5.82;;;23.30;72.60;;;;;;5012792;28;20034;-74
2023/09/11 00:10:43;;;;;;;10.60;5.90;;;23.20;73.30;;;;;;5012521;28;20402;-74
2023/09/11 00:13:09;;;;;;;9.73;6.78;;;23.20;74.20;;;;;;5012944;28;20038;-74
2023/09/11 00:15:35;;;;;;;10.27;6.65;;;23.10;75.00;;;;;;5012865;28;20072;-74
2023/09/11 00:18:01;;;;;;;7.82;7.03;;;23.10;75.70;;;;;;5012827;28;20057;-74
2023/09/11 00:20:27;;;;;;;13.32;6.47;;;23.00;76.10;;;;;;5012777;28;20029;-73
2023/09/11 00:22:52;;;;;;;8.60;6.32;;;23.00;76.40;;;;;;5012546;28;20030;-73
2023/09/11 00:25:18;;;;;;;9.73;6.10;;;22.90;76.50;;;;;;5012664;28;20104;-73
2023/09/11 00:27:44;;;;;;;9.60;6.05;;;22.90;76.60;;;;;;5011535;28;20108;-74
2023/09/11 00:30:10;;;;;;;10.40;6.68;;;22.90;76.80;;;;;;5011497;28;20030;-73
2023/09/11 00:32:36;;;;;;;10.70;6.45;;;22.90;76.50;;;;;;5012610;28;20041;-73
2023/09/11 00:35:02;;;;;;;8.55;5.78;;;22.80;75.80;;;;;;5016000;28;20034;-74
2023/09/11 00:37:28;;;;;;;10.82;6.22;;;22.80;75.70;;;;;;5015910;28;20034;-74
2023/09/11 00:39:53;;;;;;;9.85;5.75;;;22.80;75.40;;;;;;5016090;28;20025;-73
2023/09/11 00:42:19;;;;;;;11.50;6.22;;;22.80;75.30;;;;;;5016195;28;20076;-73
2023/09/11 00:44:45;;;;;;;9.68;5.55;;;22.80;75.30;;;;;;5016262;28;20022;-73
2023/09/11 00:47:11;;;;;;;9.15;6.30;;;22.80;75.30;;;;;;5016175;28;20474;-73
2023/09/11 00:49:37;;;;;;;12.48;6.15;;;22.70;76.00;;;;;;5015826;28;20109;-73
2023/09/11 00:52:03;;;;;;;9.88;6.28;;;22.70;75.50;;;;;;5015991;28;20042;-73
2023/09/11 00:54:29;;;;;;;7.63;5.80;;;22.70;75.40;;;;;;5016159;28;20015;-73
2023/09/11 00:56:56;;;;;;;8.02;5.97;;;22.70;75.40;;;;;;5016131;28;20096;-73
2023/09/11 00:59:21;;;;;;;7.20;5.40;;;22.70;75.50;;;;;;5012954;28;20033;-73
2023/09/11 01:01:49;;;;;;;11.32;5.78;;;22.70;75.10;;;;;;5013207;28;20038;-73
2023/09/11 01:04:16;;;;;;;6.30;5.45;;;22.60;74.90;;;;;;5013860;28;20048;-73
2023/09/11 01:06:42;;;;;;;9.77;5.78;;;22.60;75.20;;;;;;5015360;28;20026;-74
2023/09/11 01:09:08;;;;;;;6.88;5.43;;;22.60;75.00;;;;;;5015682;28;20026;-73
2023/09/11 01:11:34;;;;;;;10.07;5.60;;;22.50;75.10;;;;;;5015367;28;20499;-73
2023/09/11 01:14:00;;;;;;;10.73;5.80;;;22.50;75.20;;;;;;5015524;28;20018;-73
2023/09/11 01:16:30;;;;;;;15.27;6.45;;;22.50;75.50;;;;;;5015342;28;20072;-73
2023/09/11 01:19:24;;;;;;;14.82;6.80;;;22.40;75.90;;;;;;5015300;28;20029;-74
2023/09/11 01:22:22;;;;;;;14.63;6.75;;;22.40;76.60;;;;;;4989843;28;20038;-74
2023/09/11 01:25:07;;;;;;;9.70;6.03;;;22.30;76.90;;;;;;5015535;28;20029;-73
2023/09/11 01:27:56;;;;;;;10.48;6.40;;;22.30;77.40;;;;;;5015103;28;20022;-73
2023/09/11 01:30:23;;;;;;;10.15;6.30;;;22.30;77.90;;;;;;5015337;28;20428;-73
2023/09/11 01:32:50;;;;;;;7.75;6.68;;;22.30;78.20;;;;;;5013719;28;20030;-73
2023/09/11 01:35:15;;;;;;;10.15;6.45;;;22.20;78.30;;;;;;5014752;28;20324;-74
2023/09/11 01:37:41;;;;;;;8.32;6.60;;;22.20;78.40;;;;;;5014850;28;20075;-73
2023/09/11 01:40:07;;;;;;;10.48;6.43;;;22.10;78.60;;;;;;5014940;28;20049;-73
2023/09/11 01:42:41;;;;;;;9.10;6.28;;;22.10;78.60;;;;;;5014943;28;20037;-73
2023/09/11 01:45:10;;;;;;;8.60;6.50;;;22.10;78.80;;;;;;5014231;28;20018;-73
2023/09/11 01:47:36;;;;;;;8.55;6.30;;;22.00;79.10;;;;;;5015092;28;20541;-73
2023/09/11 01:50:03;;;;;;;9.82;5.70;;;22.00;79.20;;;;;;5014743;28;20026;-73
2023/09/11 01:52:31;;;;;;;9.45;6.47;;;21.90;79.20;;;;;;5013295;28;20512;-73
2023/09/11 01:54:57;;;;;;;7.22;6.13;;;22.00;79.50;;;;;;5014669;28;20025;-73
2023/09/11 01:57:27;;;;;;;9.45;6.43;;;21.90;79.30;;;;;;5014848;28;20036;-73
2023/09/11 01:59:53;;;;;;;10.10;6.13;;;21.90;79.20;;;;;;5014808;28;20025;-74
2023/09/11 02:02:19;;;;;;;7.63;5.70;;;21.90;78.90;;;;;;5014610;28;20030;-73
2023/09/11 02:04:45;;;;;;;10.60;6.05;;;21.90;79.00;;;;;;5014738;28;20355;-73
2023/09/11 02:07:10;;;;;;;9.13;5.85;;;21.90;79.00;;;;;;5014551;28;20034;-74
2023/09/11 02:09:36;;;;;;;7.85;5.80;;;21.90;79.00;;;;;;5014663;28;20033;-73
2023/09/11 02:12:02;;;;;;;6.57;5.63;;;21.90;78.50;;;;;;5014227;28;20521;-74
2023/09/11 02:14:28;;;;;;;11.30;6.32;;;21.90;78.20;;;;;;5013866;28;20077;-73
2023/09/11 02:16:54;;;;;;;12.00;5.90;;;21.80;78.10;;;;;;5014228;28;20084;-73
2023/09/11 02:19:20;;;;;;;12.50;6.53;;;21.80;78.40;;;;;;5014367;28;20026;-73
2023/09/11 02:21:46;;;;;;;11.85;6.35;;;21.80;78.70;;;;;;5013944;28;20041;-73
2023/09/11 02:24:12;;;;;;;16.90;6.53;;;21.80;78.90;;;;;;5014263;28;20155;-73
2023/09/11 02:26:37;;;;;;;10.07;6.10;;;21.80;79.10;;;;;;5014354;28;20034;-74
2023/09/11 02:29:03;;;;;;;13.27;6.22;;;21.80;79.10;;;;;;5014248;28;20033;-73
2023/09/11 02:31:29;;;;;;;13.95;6.68;;;21.80;79.00;;;;;;5014133;28;20061;-73
2023/09/11 02:33:55;;;;;;;12.45;6.18;;;21.80;79.10;;;;;;5013966;28;20410;-73
2023/09/11 02:36:20;;;;;;;13.73;5.88;;;21.70;79.20;;;;;;5014075;28;20108;-73
2023/09/11 02:38:46;;;;;;;15.45;6.18;;;21.70;79.10;;;;;;5014229;28;20105;-73
2023/09/11 02:41:12;;;;;;;16.13;6.80;;;21.70;79.10;;;;;;5013980;28;20056;-73
2023/09/11 02:43:38;;;;;;;9.57;6.35;;;21.60;79.10;;;;;;5013963;28;20030;-73
2023/09/11 02:46:03;;;;;;;10.27;6.30;;;21.60;79.10;;;;;;5013615;28;20037;-73
2023/09/11 02:48:31;;;;;;;13.13;6.07;;;21.60;79.10;;;;;;5013760;28;20061;-74
2023/09/11 02:50:57;;;;;;;10.30;6.00;;;21.60;79.10;;;;;;5013722;28;20028;-74
2023/09/11 02:53:23;;;;;;;10.82;6.40;;;21.50;79.20;;;;;;5013805;28;20025;-74
2023/09/11 02:55:48;;;;;;;8.43;6.47;;;21.50;79.30;;;;;;5013537;28;20101;-74
2023/09/11 02:58:14;;;;;;;9.82;6.07;;;21.50;79.30;;;;;;5028669;28;20030;-74
2023/09/11 03:00:40;;;;;;;13.40;5.93;;;21.50;79.20;;;;;;5013903;28;20385;-74
2023/09/11 03:03:05;;;;;;;14.70;6.78;;;21.40;79.20;;;;;;5013645;28;20038;-74
2023/09/11 03:05:32;;;;;;;10.63;6.10;;;21.40;79.30;;;;;;5013518;28;20057;-74
2023/09/11 03:07:59;;;;;;;12.60;5.63;;;21.40;79.30;;;;;;5013598;28;20018;-74
2023/09/11 03:10:27;;;;;;;9.73;6.18;;;21.40;79.30;;;;;;5013311;28;20115;-74
2023/09/11 03:12:54;;;;;;;12.20;6.03;;;21.30;79.20;;;;;;5013545;28;20497;-74
2023/09/11 03:15:26;;;;;;;10.25;6.13;;;21.30;79.30;;;;;;5013331;28;20076;-74
2023/09/11 03:17:52;;;;;;;9.60;5.97;;;21.30;79.20;;;;;;5013273;28;20026;-74
2023/09/11 03:20:17;;;;;;;8.88;5.95;;;21.30;79.40;;;;;;5013393;28;20010;-74
2023/09/11 03:22:43;;;;;;;7.90;6.00;;;21.30;79.30;;;;;;5013475;28;20026;-74
2023/09/11 03:25:09;;;;;;;10.20;5.78;;;21.30;79.40;;;;;;5013487;28;20060;-74
2023/09/11 03:27:35;;;;;;;7.85;5.90;;;21.20;79.40;;;;;;5013432;28;20101;-73
2023/09/11 03:30:00;;;;;;;12.93;5.82;;;21.30;79.40;;;;;;5011868;28;20044;-74
2023/09/11 03:32:26;;;;;;;9.65;6.22;;;21.20;78.80;;;;;;5013114;28;20041;-74
2023/09/11 03:34:55;;;;;;;9.68;6.10;;;21.20;78.70;;;;;;5012944;28;20049;-74
2023/09/11 03:37:22;;;;;;;12.18;5.90;;;21.10;78.80;;;;;;5012989;28;20029;-74
2023/09/11 03:39:47;;;;;;;12.68;6.00;;;21.10;78.80;;;;;;5013081;28;20496;-74
2023/09/11 03:42:13;;;;;;;12.32;6.28;;;21.00;78.90;;;;;;5013235;28;20026;-74
2023/09/11 03:44:39;;;;;;;11.80;6.10;;;21.00;79.10;;;;;;5013063;28;20030;-74
2023/09/11 03:47:05;;;;;;;13.52;6.00;;;21.00;79.30;;;;;;5013171;28;20037;-74
2023/09/11 03:49:30;;;;;;;8.45;6.15;;;21.00;80.10;;;;;;5013028;28;20026;-74
2023/09/11 03:51:57;;;;;;;9.90;6.07;;;21.00;79.50;;;;;;5013144;28;20042;-74
2023/09/11 03:54:23;;;;;;;10.68;5.53;;;21.00;79.30;;;;;;5013001;28;20057;-74
2023/09/11 03:56:49;;;;;;;12.13;6.00;;;21.00;79.20;;;;;;5013027;28;20104;-75
2023/09/11 03:59:15;;;;;;;9.77;6.10;;;21.00;79.10;;;;;;5012944;28;20101;-74
2023/09/11 04:01:41;;;;;;;15.38;6.32;;;21.00;79.20;;;;;;5013013;28;20026;-74
2023/09/11 04:04:07;;;;;;;9.68;6.00;;;21.00;79.30;;;;;;5013061;28;20057;-74
2023/09/11 04:06:32;;;;;;;10.85;6.30;;;21.00;79.50;;;;;;5012965;28;20022;-73
2023/09/11 04:08:58;;;;;;;9.85;6.30;;;20.90;79.50;;;;;;5014720;28;20105;-74
2023/09/11 04:11:24;;;;;;;13.60;6.35;;;21.00;79.70;;;;;;5016509;28;20042;-74
2023/09/11 04:13:49;;;;;;;10.85;6.72;;;20.90;79.70;;;;;;5016720;28;20084;-74
2023/09/11 04:16:15;;;;;;;10.10;6.53;;;20.90;79.70;;;;;;5016722;28;20021;-74
2023/09/11 04:18:42;;;;;;;35.95;9.68;;;20.80;79.80;;;;;;5016558;28;20022;-73
2023/09/11 04:21:08;;;;;;;40.83;8.50;;;20.80;80.00;;;;;;5016620;28;20482;-74
2023/09/11 04:23:34;;;;;;;41.40;9.30;;;20.80;80.20;;;;;;5016392;28;20513;-74
2023/09/11 04:26:00;;;;;;;28.08;8.57;;;20.80;80.30;;;;;;5016407;28;20026;-74
2023/09/11 04:28:26;;;;;;;33.10;8.30;;;20.80;80.20;;;;;;5016338;28;20029;-74
2023/09/11 04:30:52;;;;;;;29.67;8.13;;;20.80;80.10;;;;;;5016279;28;20026;-74
2023/09/11 04:33:18;;;;;;;27.10;7.85;;;20.70;80.10;;;;;;5016151;28;20501;-74
2023/09/11 04:35:44;;;;;;;14.35;6.93;;;20.70;80.10;;;;;;5016358;28;20053;-73
2023/09/11 04:38:10;;;;;;;15.75;6.72;;;20.70;80.10;;;;;;5016356;28;20030;-74
2023/09/11 04:40:36;;;;;;;8.18;6.05;;;20.70;80.10;;;;;;5016135;28;20059;-74
2023/09/11 04:43:02;;;;;;;11.43;6.03;;;20.60;80.30;;;;;;5015841;28;20061;-74
2023/09/11 04:45:28;;;;;;;10.25;5.57;;;20.60;80.20;;;;;;5015870;28;20026;-74
2023/09/11 04:47:53;;;;;;;18.27;6.68;;;20.60;80.70;;;;;;5016007;28;20474;-73
2023/09/11 04:50:19;;;;;;;16.50;6.63;;;20.60;80.60;;;;;;5015910;28;20033;-73
2023/09/11 04:52:45;;;;;;;15.35;6.57;;;20.60;80.70;;;;;;5015836;28;20108;-74
2023/09/11 04:55:11;;;;;;;14.80;6.68;;;20.60;80.80;;;;;;5015909;28;20064;-74
2023/09/11 04:57:36;;;;;;;23.73;7.20;;;20.60;80.70;;;;;;5015971;28;20107;-74
2023/09/11 05:00:10;;;;;;;14.75;7.03;;;20.60;80.60;;;;;;5015841;28;20022;-74
2023/09/11 05:02:36;;;;;;;23.23;7.05;;;20.50;80.60;;;;;;5015654;28;20037;-74
2023/09/11 05:05:03;;;;;;;15.50;6.68;;;20.50;80.60;;;;;;5015586;28;20026;-74
2023/09/11 05:07:30;;;;;;;16.88;7.03;;;20.50;80.70;;;;;;5015857;28;20381;-74
2023/09/11 05:09:56;;;;;;;14.52;6.22;;;20.50;80.90;;;;;;5015581;28;20018;-74
2023/09/11 05:12:22;;;;;;;15.20;6.00;;;20.40;80.90;;;;;;5014131;28;20042;-74
2023/09/11 05:14:47;;;;;;;18.75;6.50;;;20.40;81.00;;;;;;5015372;28;20014;-75
2023/09/11 05:17:13;;;;;;;24.00;6.47;;;20.40;80.90;;;;;;5015526;28;20425;-73
2023/09/11 05:19:39;;;;;;;15.45;6.43;;;20.40;80.90;;;;;;5014620;28;20024;-74
2023/09/11 05:22:05;;;;;;;13.18;6.18;;;20.40;80.90;;;;;;5015213;28;20053;-73
2023/09/11 05:24:32;;;;;;;13.88;5.60;;;20.40;80.80;;;;;;5015366;28;20026;-74
2023/09/11 05:26:58;;;;;;;9.55;5.82;;;20.40;81.40;;;;;;5015431;28;20037;-74
2023/09/11 05:29:24;;;;;;;10.20;5.25;;;20.40;80.50;;;;;;5015423;28;20022;-75
2023/09/11 05:31:49;;;;;;;12.65;6.05;;;20.50;80.50;;;;;;5015144;28;20030;-74
2023/09/11 05:34:15;;;;;;;12.05;5.65;;;20.40;80.40;;;;;;5015035;28;20030;-74
2023/09/11 05:36:41;;;;;;;10.30;6.00;;;20.50;80.70;;;;;;5015147;28;20100;-74
2023/09/11 05:39:07;;;;;;;14.00;6.35;;;20.40;80.80;;;;;;5014960;28;20033;-74
2023/09/11 05:41:34;;;;;;;10.43;6.03;;;20.40;81.00;;;;;;5015074;28;20026;-74
2023/09/11 05:44:00;;;;;;;21.23;6.10;;;20.40;81.10;;;;;;5014817;28;20487;-74
2023/09/11 05:46:26;;;;;;;19.38;6.72;;;20.40;81.30;;;;;;5014863;28;20036;-74
2023/09/11 05:48:52;;;;;;;12.13;6.07;;;20.40;81.40;;;;;;5015063;28;20021;-74
2023/09/11 05:51:17;;;;;;;14.20;6.32;;;20.50;81.50;;;;;;5013628;28;20057;-74
2023/09/11 05:53:43;;;;;;;15.85;6.53;;;20.50;81.70;;;;;;5015082;28;20116;-74
2023/09/11 05:56:09;;;;;;;7.68;5.53;;;20.50;82.00;;;;;;5014785;28;20018;-74
2023/09/11 05:58:35;;;;;;;18.15;6.05;;;20.50;82.20;;;;;;5014558;28;20030;-74
2023/09/11 06:01:01;;;;;;;18.52;6.18;;;20.50;82.20;;;;;;5014760;28;20022;-73
2023/09/11 06:03:26;;;;;;;14.70;6.28;;;20.60;82.20;;;;;;5013397;28;20030;-73
2023/09/11 06:05:52;;;;;;;15.07;5.63;;;20.60;82.20;;;;;;5014708;28;20028;-74
2023/09/11 06:08:18;;;;;;;15.88;5.55;;;20.70;82.30;;;;;;5014659;28;20505;-73
2023/09/11 06:10:43;;;;;;;18.65;5.63;;;20.70;82.30;;;;;;5014485;28;20124;-74
2023/09/11 06:13:09;;;;;;;12.48;5.85;;;20.70;82.20;;;;;;5014051;28;20041;-73
2023/09/11 06:15:36;;;;;;;11.82;5.85;;;20.80;82.30;;;;;;5013472;28;20022;-73
2023/09/11 06:18:03;;;;;;;8.70;5.45;;;20.90;82.00;;;;;;5013508;28;20053;-72
2023/09/11 06:20:29;;;;;;;22.25;6.15;;;20.90;81.70;;;;;;5013895;28;20026;-72
2023/09/11 06:22:55;;;;;;;29.30;6.53;;;20.90;81.80;;;;;;5012817;28;20030;-72
2023/09/11 06:25:21;;;;;;;9.25;5.40;;;20.90;82.10;;;;;;5014230;28;20034;-72
2023/09/11 06:27:47;;;;;;;12.85;5.82;;;21.00;82.10;;;;;;5014069;28;20030;-71
2023/09/11 06:30:13;;;;;;;10.35;5.95;;;21.10;81.70;;;;;;5013863;28;20026;-71
2023/09/11 06:32:39;;;;;;;13.60;5.55;;;21.10;81.70;;;;;;5013851;28;20048;-72
2023/09/11 06:35:05;;;;;;;14.13;5.68;;;21.10;81.90;;;;;;5013480;28;20037;-72
2023/09/11 06:37:31;;;;;;;12.50;5.45;;;21.20;82.00;;;;;;5014058;28;20036;-72
2023/09/11 06:39:57;;;;;;;7.80;5.53;;;21.20;81.80;;;;;;5014025;28;20389;-72
2023/09/11 06:42:24;;;;;;;10.43;5.45;;;21.20;81.50;;;;;;5012521;28;20088;-72
2023/09/11 06:44:54;;;;;;;11.07;5.57;;;21.30;81.00;;;;;;5013650;28;20028;-72
2023/09/11 06:47:19;;;;;;;9.63;5.22;;;21.30;80.70;;;;;;5013824;28;20048;-73
2023/09/11 06:49:45;;;;;;;9.23;4.63;;;21.30;80.80;;;;;;5013807;28;20466;-72
2023/09/11 06:52:11;;;;;;;8.30;5.07;;;21.40;80.60;;;;;;5013572;28;20486;-71
2023/09/11 06:54:37;;;;;;;10.77;5.53;;;21.40;79.90;;;;;;5013497;28;20124;-72
2023/09/11 06:57:03;;;;;;;11.63;4.85;;;21.50;79.40;;;;;;5013909;28;20033;-72
2023/09/11 06:59:28;;;;;;;7.00;5.10;;;21.50;78.80;;;;;;5012435;28;20409;-71
2023/09/11 07:01:54;;;;;;;10.07;5.55;;;21.60;79.00;;;;;;5013440;28;20037;-72
2023/09/11 07:04:20;;;;;;;8.07;4.88;;;21.70;79.30;;;;;;5013607;28;20025;-72
2023/09/11 07:06:46;;;;;;;9.52;5.25;;;21.70;79.30;;;;;;5013677;28;20029;-72
2023/09/11 07:09:12;;;;;;;7.90;4.82;;;21.80;79.10;;;;;;5013271;28;20022;-72
2023/09/11 07:11:37;;;;;;;14.77;5.13;;;21.90;78.80;;;;;;5028392;28;20049;-72
2023/09/11 07:14:05;;;;;;;9.45;5.30;;;21.90;78.60;;;;;;5013375;28;20135;-72
2023/09/11 07:16:31;;;;;;;6.45;4.40;;;22.00;78.70;;;;;;5013368;28;20030;-72
2023/09/11 07:18:57;;;;;;;11.38;5.13;;;22.00;78.80;;;;;;5013409;28;20026;-72
2023/09/11 07:21:23;;;;;;;10.77;5.88;;;22.10;79.20;;;;;;5013101;28;20505;-72
2023/09/11 07:23:48;;;;;;;12.23;5.53;;;22.10;79.30;;;;;;5012854;28;20014;-72
2023/09/11 07:26:14;;;;;;;13.40;5.72;;;22.20;79.20;;;;;;5013236;28;20025;-72
2023/09/11 07:28:57;;;;;;;15.40;5.95;;;22.20;79.10;;;;;;5013100;28;20064;-72
2023/09/11 07:31:23;;;;;;;13.25;5.72;;;22.30;79.00;;;;;;5012873;28;20034;-72
2023/09/11 07:33:49;;;;;;;6.75;5.07;;;22.40;79.00;;;;;;5013311;28;20148;-72
2023/09/11 07:36:17;;;;;;;11.98;5.53;;;22.50;79.10;;;;;;5012803;28;20104;-72
2023/09/11 07:38:44;;;;;;;14.95;5.45;;;22.50;79.30;;;;;;5012807;28;20030;-72
2023/09/11 07:41:20;;;;;;;7.90;5.10;;;22.50;79.70;;;;;;5012999;28;20026;-72
2023/09/11 07:43:49;;;;;;;10.25;6.32;;;22.60;79.80;;;;;;5014935;28;20042;-72
2023/09/11 07:46:19;;;;;;;10.73;5.38;;;22.70;79.30;;;;;;5017121;28;20022;-72
2023/09/11 07:48:45;;;;;;;9.23;5.07;;;22.70;78.70;;;;;;5016751;28;20087;-72
2023/09/11 07:51:10;;;;;;;8.80;4.53;;;22.80;78.50;;;;;;5016938;28;20026;-72
2023/09/11 07:53:36;;;;;;;8.45;4.85;;;22.90;78.10;;;;;;5016752;28;20103;-72
2023/09/11 07:56:06;;;;;;;7.65;5.43;;;22.90;77.70;;;;;;5016364;28;20151;-72
2023/09/11 07:58:32;;;;;;;6.82;4.82;;;23.00;77.60;;;;;;5016423;28;20030;-72
2023/09/11 08:00:58;;;;;;;9.13;5.10;;;23.10;77.00;;;;;;5016590;28;20026;-72
2023/09/11 08:03:23;;;;;;;9.30;5.00;;;23.10;76.70;;;;;;5016369;28;20497;-74
2023/09/11 08:05:49;;;;;;;7.93;4.82;;;23.20;76.40;;;;;;5015235;28;20033;-75
2023/09/11 08:08:15;;;;;;;7.10;5.28;;;23.30;76.10;;;;;;5015037;28;20122;-76
2023/09/11 08:10:41;;;;;;;5.57;4.50;;;23.30;75.80;;;;;;5015629;28;20056;-75
2023/09/11 08:13:06;;;;;;;7.05;4.93;;;23.40;76.00;;;;;;5013847;28;20038;-75
2023/09/11 08:15:32;;;;;;;7.75;4.80;;;23.50;75.90;;;;;;5016817;28;20071;-75
2023/09/11 08:17:58;;;;;;;7.32;5.10;;;23.50;76.10;;;;;;5016674;28;20482;-75
2023/09/11 08:20:24;;;;;;;8.35;4.57;;;23.60;75.10;;;;;;5016674;28;20028;-75
2023/09/11 08:22:49;;;;;;;7.80;4.50;;;23.60;74.80;;;;;;5016350;28;20026;-75
2023/09/11 08:25:15;;;;;;;11.70;5.07;;;23.70;74.50;;;;;;5016590;28;20022;-76
2023/09/11 08:27:41;;;;;;;9.88;4.32;;;23.80;74.20;;;;;;5015294;28;20133;-76
2023/09/11 08:30:07;;;;;;;6.28;4.82;;;23.80;73.40;;;;;;5016259;28;20024;-75
2023/09/11 08:32:33;;;;;;;7.03;4.35;;;23.80;73.10;;;;;;5016685;28;20120;-75
2023/09/11 08:34:59;;;;;;;8.85;5.60;;;23.90;72.70;;;;;;5016601;28;20037;-75
2023/09/11 08:37:25;;;;;;;10.25;4.65;;;23.90;72.60;;;;;;5016258;28;20033;-75
2023/09/11 08:39:52;;;;;;;10.05;4.70;;;24.00;72.70;;;;;;5016068;28;20041;-74
2023/09/11 08:42:18;;;;;;;9.65;5.05;;;24.00;71.90;;;;;;5013788;28;20026;-75
2023/09/11 08:44:44;;;;;;;8.50;4.75;;;24.00;71.70;;;;;;5014160;28;20041;-76
2023/09/11 08:47:12;;;;;;;8.55;4.50;;;24.10;71.20;;;;;;5013540;28;20037;-75
2023/09/11 08:49:49;;;;;;;10.57;5.82;;;24.10;70.30;;;;;;4996182;28;20386;-75
2023/09/11 08:52:17;;;;;;;9.63;4.50;;;24.20;70.50;;;;;;5005668;28;20045;-75
2023/09/11 08:54:45;;;;;;;9.85;4.38;;;24.20;70.20;;;;;;5015472;28;20021;-75
2023/09/11 08:57:12;;;;;;;7.93;4.70;;;24.20;70.10;;;;;;5000575;28;20117;-74
2023/09/11 08:59:40;;;;;;;13.18;4.90;;;24.30;70.30;;;;;;4994666;28;20113;-76
2023/09/11 09:02:07;;;;;;;10.93;4.68;;;24.40;69.20;;;;;;4995729;28;20474;-75
2023/09/11 09:04:35;;;;;;;8.10;4.70;;;24.40;68.90;;;;;;5003381;28;20076;-76
2023/09/11 09:07:01;;;;;;;5.80;4.50;;;24.50;68.30;;;;;;5015494;28;20033;-75
2023/09/11 09:09:27;;;;;;;6.28;4.80;;;24.50;67.30;;;;;;5015232;28;20028;-76
2023/09/11 09:11:53;;;;;;;8.60;4.82;;;24.50;67.80;;;;;;5013500;28;20054;-75
2023/09/11 09:14:19;;;;;;;8.07;4.60;;;24.60;68.10;;;;;;5015080;28;20031;-76
2023/09/11 09:16:46;;;;;;;15.27;5.40;;;24.60;68.30;;;;;;5015423;28;20062;-76
2023/09/11 09:19:12;;;;;;;9.50;4.70;;;24.70;68.10;;;;;;5015148;28;20018;-76
2023/09/11 09:22:06;;;;;;;10.57;4.53;;;24.70;68.30;;;;;;5014389;28;20022;-77
2023/09/11 09:24:33;;;;;;;11.15;4.90;;;24.80;68.60;;;;;;5014647;28;20496;-75
2023/09/11 09:27:04;;;;;;;6.05;4.50;;;24.90;69.00;;;;;;5000780;28;20057;-76
2023/09/11 09:29:36;;;;;;;6.97;4.80;;;25.00;68.90;;;;;;5014905;28;20057;-76
2023/09/11 09:32:03;;;;;;;7.88;4.30;;;25.00;68.60;;;;;;5014605;28;20118;-76
2023/09/11 09:34:31;;;;;;;10.85;4.72;;;25.00;69.30;;;;;;5015123;28;20077;-75
2023/09/11 09:36:57;;;;;;;9.32;4.70;;;25.10;69.90;;;;;;5015077;28;20099;-76
2023/09/11 09:39:28;;;;;;;8.02;4.95;;;25.20;70.50;;;;;;5014777;28;20459;-76
2023/09/11 09:42:02;;;;;;;14.07;5.03;;;25.20;69.20;;;;;;5015212;28;20426;-75
2023/09/11 09:44:32;;;;;;;8.88;4.72;;;25.30;69.20;;;;;;5015108;28;20049;-74
2023/09/11 09:47:13;;;;;;;7.15;4.40;;;25.40;68.90;;;;;;5014834;28;20026;-75
2023/09/11 09:49:48;;;;;;;9.82;4.68;;;25.50;69.00;;;;;;5014794;28;20141;-75
2023/09/11 09:52:14;;;;;;;7.65;5.32;;;25.50;70.40;;;;;;5013215;28;20390;-75
2023/09/11 09:54:49;;;;;;;5.45;4.13;;;25.50;70.50;;;;;;5014617;28;20026;-76
2023/09/11 09:57:21;;;;;;;8.52;4.63;;;25.60;70.60;;;;;;5014766;28;20022;-76
2023/09/11 09:59:53;;;;;;;8.43;4.97;;;25.70;70.60;;;;;;5014576;28;20489;-76
2023/09/11 10:02:27;;;;;;;7.75;5.13;;;25.70;70.50;;;;;;5013980;28;20479;-76
2023/09/11 10:04:54;;;;;;;7.28;4.30;;;25.80;70.60;;;;;;5014586;28;20026;-75
2023/09/11 10:07:43;;;;;;;14.70;5.82;;;25.90;70.60;;;;;;5013935;28;20030;-76
2023/09/11 10:10:24;;;;;;;9.13;4.72;;;25.90;69.50;;;;;;5014334;28;20056;-76
2023/09/11 10:12:58;;;;;;;11.27;4.70;;;26.00;68.50;;;;;;5014346;28;20038;-74
2023/09/11 10:15:24;;;;;;;7.50;4.78;;;26.10;68.90;;;;;;5014456;28;20018;-75
2023/09/11 10:17:54;;;;;;;8.35;4.15;;;26.10;68.40;;;;;;5014911;28;20033;-75
2023/09/11 10:20:21;;;;;;;9.27;4.38;;;26.20;68.60;;;;;;5014719;28;20018;-75
2023/09/11 10:22:47;;;;;;;10.75;4.07;;;26.20;68.80;;;;;;5016449;28;20026;-75
2023/09/11 10:25:13;;;;;;;5.38;4.38;;;26.20;67.50;;;;;;5022009;28;20018;-75
2023/09/11 10:27:39;;;;;;;8.70;4.55;;;26.30;67.20;;;;;;5018305;28;20042;-75
2023/09/11 10:30:08;;;;;;;16.10;4.53;;;26.40;67.50;;;;;;5014183;28;20482;-75
2023/09/11 10:33:03;;;;;;;7.55;4.30;;;26.50;67.30;;;;;;5014238;28;20518;-75
2023/09/11 10:35:33;;;;;;;6.22;4.43;;;26.50;66.60;;;;;;5008227;28;20029;-75
2023/09/11 10:37:59;;;;;;;12.18;4.75;;;26.50;66.20;;;;;;5013881;28;20474;-74
2023/09/11 10:40:31;;;;;;;6.85;4.45;;;26.60;66.60;;;;;;5013607;28;20022;-74
2023/09/11 10:42:58;;;;;;;8.57;4.60;;;26.60;66.90;;;;;;5013865;28;20100;-74
2023/09/11 10:45:34;;;;;;;9.60;4.45;;;26.70;66.80;;;;;;5013773;28;20034;-75
2023/09/11 10:48:01;;;;;;;7.57;5.28;;;26.70;66.30;;;;;;5013077;28;20104;-75
2023/09/11 10:50:37;;;;;;;10.45;4.60;;;26.70;66.00;;;;;;5013476;28;20128;-75
2023/09/11 10:53:07;;;;;;;8.52;4.38;;;26.80;65.70;;;;;;5013535;28;20040;-74
2023/09/11 10:55:34;;;;;;;10.55;4.85;;;26.80;65.60;;;;;;5013391;28;20486;-74
2023/09/11 10:58:04;;;;;;;10.30;4.30;;;26.90;66.50;;;;;;5013781;28;20367;-74
2023/09/11 11:00:35;;;;;;;7.05;4.30;;;26.90;65.80;;;;;;5013525;28;20018;-74
2023/09/11 11:03:01;;;;;;;10.43;4.15;;;26.90;65.60;;;;;;5013444;28;20030;-75
2023/09/11 11:05:27;;;;;;;9.25;4.60;;;27.00;66.80;;;;;;5013341;28;20032;-74
2023/09/11 11:07:53;;;;;;;7.07;4.50;;;27.00;66.80;;;;;;5013094;28;20034;-74
2023/09/11 11:10:20;;;;;;;6.25;3.88;;;27.10;66.10;;;;;;5013638;28;20069;-74
2023/09/11 11:12:46;;;;;;;8.25;4.45;;;27.10;64.50;;;;;;5013374;28;20032;-74
2023/09/11 11:15:23;;;;;;;12.80;5.05;;;27.10;65.00;;;;;;5013357;28;20065;-74
2023/09/11 11:18:09;;;;;;;12.98;4.88;;;27.20;66.20;;;;;;5013502;28;20100;-74
2023/09/11 11:20:36;;;;;;;7.95;4.53;;;27.20;65.30;;;;;;5012063;28;20409;-74
2023/09/11 11:23:12;;;;;;;14.30;4.78;;;27.30;65.60;;;;;;5012787;28;20033;-74
2023/09/11 11:25:42;;;;;;;9.93;4.80;;;27.40;64.70;;;;;;5013185;28;20351;-74
2023/09/11 11:28:17;;;;;;;15.20;4.50;;;27.40;65.50;;;;;;5013284;28;20026;-74
2023/09/11 11:30:44;;;;;;;7.63;4.47;;;27.40;63.80;;;;;;5013134;28;20033;-74
2023/09/11 11:33:15;;;;;;;8.38;4.50;;;27.40;63.80;;;;;;5013228;28;20034;-74
2023/09/11 11:35:46;;;;;;;13.07;4.45;;;27.50;63.40;;;;;;5013182;28;20014;-74
2023/09/11 11:38:16;;;;;;;8.63;4.63;;;27.50;64.80;;;;;;5013138;28;20050;-75
2023/09/11 11:40:43;;;;;;;7.97;4.57;;;27.60;64.90;;;;;;5013353;28;20108;-74
2023/09/11 11:43:10;;;;;;;8.45;4.32;;;27.60;64.40;;;;;;5011833;28;20029;-75
2023/09/11 11:45:44;;;;;;;7.88;4.50;;;27.60;64.60;;;;;;5012902;28;20539;-74
2023/09/11 11:48:14;;;;;;;9.50;4.88;;;27.70;64.40;;;;;;5012876;28;20519;-75
2023/09/11 11:50:43;;;;;;;10.00;4.80;;;27.70;64.00;;;;;;5012843;28;20052;-75
2023/09/11 11:53:17;;;;;;;7.60;4.32;;;27.70;64.20;;;;;;5012489;28;20042;-75
2023/09/11 11:55:43;;;;;;;7.93;4.53;;;27.80;63.80;;;;;;5012869;28;20076;-75
2023/09/11 11:58:12;;;;;;;6.20;4.35;;;27.80;64.00;;;;;;5012881;28;20022;-74
2023/09/11 12:00:41;;;;;;;13.90;4.55;;;27.80;63.80;;;;;;5011328;28;20017;-75
2023/09/11 12:03:08;;;;;;;13.80;5.60;;;27.90;63.20;;;;;;5012610;28;20101;-75
2023/09/11 12:05:36;;;;;;;7.28;4.40;;;27.90;63.50;;;;;;5013123;28;20026;-74
2023/09/11 12:08:03;;;;;;;6.97;4.47;;;27.90;63.90;;;;;;5011507;28;20030;-73
2023/09/11 12:10:29;;;;;;;7.65;4.90;;;28.00;63.70;;;;;;5012338;28;20053;-73
2023/09/11 12:12:55;;;;;;;14.68;4.72;;;28.00;63.40;;;;;;5011465;28;20077;-73
2023/09/11 12:15:21;;;;;;;7.15;4.75;;;28.00;63.70;;;;;;5012712;28;20092;-75
2023/09/11 12:17:48;;;;;;;10.13;4.50;;;28.10;63.10;;;;;;5012376;28;20022;-75
2023/09/11 12:20:19;;;;;;;6.78;4.35;;;28.10;63.70;;;;;;5012587;28;20025;-75
2023/09/11 12:22:47;;;;;;;6.10;4.47;;;28.20;61.60;;;;;;5012789;28;20030;-74
2023/09/11 12:25:14;;;;;;;14.18;5.43;;;28.20;63.30;;;;;;5011205;28;20552;-73
2023/09/11 12:27:41;;;;;;;7.50;4.90;;;28.30;64.40;;;;;;5012744;28;20022;-73
2023/09/11 12:30:07;;;;;;;11.15;4.95;;;28.30;62.70;;;;;;5013119;28;20381;-72
2023/09/11 12:32:33;;;;;;;7.20;4.50;;;28.40;63.20;;;;;;5016639;28;20034;-73
2023/09/11 12:35:00;;;;;;;13.43;5.05;;;28.40;62.90;;;;;;5015074;28;20025;-73
2023/09/11 12:37:27;;;;;;;7.13;4.75;;;28.40;60.90;;;;;;5015120;28;20030;-72
2023/09/11 12:39:53;;;;;;;8.25;4.88;;;28.40;61.10;;;;;;5016300;28;20036;-72
2023/09/11 12:42:19;;;;;;;8.52;4.75;;;28.50;62.30;;;;;;5015801;28;20058;-75